sensor_id;sensor_type;location;lat;lon;timestamp;P1;durP1;ratioP1;P2;durP2;ratioP2
34982;SDS011;21187;50.976;13.720;2022-12-07T00:04:32;21.83;;;9.38;;
34982;SDS011;21187;50.976;13.720;2022-12-07T00:09:33;19.63;;;7.75;;
34982;SDS011;21187;50.976;13.720;2022-12-07T00:14:35;16.75;;;8.02;;
34982;SDS011;21187;50.976;13.720;2022-12-07T00:19:37;19.25;;;8.35;;
34982;SDS011;21187;50.976;13.720;2022-12-07T00:24:39;16.33;;;7.80;;
34982;SDS011;21187;50.976;13.720;2022-12-07T00:29:40;19.80;;;9.13;;
34982;SDS011;21187;50.976;13.720;2022-12-07T00:34:42;18.67;;;7.43;;
34982;SDS011;21187;50.976;13.720;2022-12-07T00:39:45;17.52;;;6.65;;
34982;SDS011;21187;50.976;13.720;2022-12-07T00:44:47;20.55;;;8.43;;
34982;SDS011;21187;50.976;13.720;2022-12-07T00:49:49;17.20;;;7.28;;
34982;SDS011;21187;50.976;13.720;2022-12-07T00:54:51;20.27;;;8.40;;
34982;SDS011;21187;50.976;13.720;2022-12-07T00:59:53;14.13;;;6.25;;
34982;SDS011;21187;50.976;13.720;2022-12-07T01:04:59;18.50;;;8.40;;
34982;SDS011;21187;50.976;13.720;2022-12-07T01:10:00;18.85;;;8.65;;
34982;SDS011;21187;50.976;13.720;2022-12-07T01:15:03;19.63;;;8.88;;
34982;SDS011;21187;50.976;13.720;2022-12-07T01:20:05;19.30;;;8.70;;
34982;SDS011;21187;50.976;13.720;2022-12-07T01:25:09;16.63;;;7.43;;
34982;SDS011;21187;50.976;13.720;2022-12-07T01:30:12;16.25;;;7.18;;
34982;SDS011;21187;50.976;13.720;2022-12-07T01:35:14;18.85;;;8.20;;
34982;SDS011;21187;50.976;13.720;2022-12-07T01:40:17;17.05;;;7.80;;
34982;SDS011;21187;50.976;13.720;2022-12-07T01:50:40;16.83;;;6.65;;
34982;SDS011;21187;50.976;13.720;2022-12-07T01:55:44;15.32;;;6.95;;
34982;SDS011;21187;50.976;13.720;2022-12-07T02:00:48;14.90;;;6.72;;
34982;SDS011;21187;50.976;13.720;2022-12-07T02:05:50;13.38;;;5.97;;
34982;SDS011;21187;50.976;13.720;2022-12-07T02:10:52;10.13;;;5.38;;
34982;SDS011;21187;50.976;13.720;2022-12-07T02:21:10;14.43;;;5.18;;
34982;SDS011;21187;50.976;13.720;2022-12-07T02:31:34;11.60;;;5.30;;
34982;SDS011;21187;50.976;13.720;2022-12-07T02:36:40;13.00;;;6.10;;
34982;SDS011;21187;50.976;13.720;2022-12-07T02:41:52;13.90;;;6.63;;
34982;SDS011;21187;50.976;13.720;2022-12-07T02:46:58;17.03;;;8.23;;
34982;SDS011;21187;50.976;13.720;2022-12-07T02:52:04;17.67;;;8.30;;
34982;SDS011;21187;50.976;13.720;2022-12-07T03:13:05;19.65;;;9.40;;
34982;SDS011;21187;50.976;13.720;2022-12-07T03:18:14;19.92;;;8.82;;
34982;SDS011;21187;50.976;13.720;2022-12-07T03:23:19;18.60;;;8.57;;
34982;SDS011;21187;50.976;13.720;2022-12-07T03:28:24;20.17;;;8.52;;
34982;SDS011;21187;50.976;13.720;2022-12-07T03:33:36;20.95;;;8.73;;
34982;SDS011;21187;50.976;13.720;2022-12-07T03:38:52;23.30;;;10.63;;
34982;SDS011;21187;50.976;13.720;2022-12-07T03:44:02;18.73;;;7.10;;
34982;SDS011;21187;50.976;13.720;2022-12-07T03:49:11;20.40;;;8.98;;
34982;SDS011;21187;50.976;13.720;2022-12-07T03:59:37;17.45;;;8.55;;
34982;SDS011;21187;50.976;13.720;2022-12-07T04:04:40;18.00;;;8.52;;
34982;SDS011;21187;50.976;13.720;2022-12-07T04:09:44;15.55;;;7.53;;
34982;SDS011;21187;50.976;13.720;2022-12-07T04:14:46;16.25;;;7.45;;
34982;SDS011;21187;50.976;13.720;2022-12-07T04:19:48;17.90;;;8.07;;
34982;SDS011;21187;50.976;13.720;2022-12-07T04:24:50;20.20;;;8.55;;
34982;SDS011;21187;50.976;13.720;2022-12-07T04:29:52;20.55;;;9.57;;
34982;SDS011;21187;50.976;13.720;2022-12-07T04:34:54;22.67;;;10.00;;
34982;SDS011;21187;50.976;13.720;2022-12-07T04:39:56;19.35;;;9.25;;
34982;SDS011;21187;50.976;13.720;2022-12-07T04:44:58;18.67;;;9.15;;
34982;SDS011;21187;50.976;13.720;2022-12-07T04:50:00;20.45;;;8.90;;
34982;SDS011;21187;50.976;13.720;2022-12-07T04:55:02;20.10;;;8.25;;
34982;SDS011;21187;50.976;13.720;2022-12-07T05:00:05;17.50;;;8.13;;
34982;SDS011;21187;50.976;13.720;2022-12-07T05:05:07;21.00;;;8.32;;
34982;SDS011;21187;50.976;13.720;2022-12-07T05:10:09;18.80;;;7.47;;
34982;SDS011;21187;50.976;13.720;2022-12-07T05:15:12;17.98;;;7.20;;
34982;SDS011;21187;50.976;13.720;2022-12-07T05:20:15;15.77;;;7.25;;
34982;SDS011;21187;50.976;13.720;2022-12-07T05:25:16;14.50;;;6.80;;
34982;SDS011;21187;50.976;13.720;2022-12-07T05:30:18;12.65;;;5.93;;
34982;SDS011;21187;50.976;13.720;2022-12-07T05:35:21;16.30;;;4.88;;
34982;SDS011;21187;50.976;13.720;2022-12-07T05:40:23;13.10;;;5.35;;
34982;SDS011;21187;50.976;13.720;2022-12-07T05:45:25;19.77;;;8.20;;
34982;SDS011;21187;50.976;13.720;2022-12-07T05:50:27;11.35;;;5.68;;
34982;SDS011;21187;50.976;13.720;2022-12-07T05:55:35;12.93;;;6.18;;
34982;SDS011;21187;50.976;13.720;2022-12-07T06:00:37;9.65;;;5.30;;
34982;SDS011;21187;50.976;13.720;2022-12-07T06:05:38;7.70;;;3.97;;
34982;SDS011;21187;50.976;13.720;2022-12-07T06:10:41;8.25;;;4.30;;
34982;SDS011;21187;50.976;13.720;2022-12-07T06:15:43;8.45;;;4.82;;
34982;SDS011;21187;50.976;13.720;2022-12-07T06:20:45;10.32;;;4.75;;
34982;SDS011;21187;50.976;13.720;2022-12-07T06:25:47;11.35;;;5.53;;
34982;SDS011;21187;50.976;13.720;2022-12-07T06:30:56;7.60;;;4.20;;
34982;SDS011;21187;50.976;13.720;2022-12-07T06:35:59;11.60;;;4.82;;
34982;SDS011;21187;50.976;13.720;2022-12-07T06:41:01;8.57;;;4.32;;
34982;SDS011;21187;50.976;13.720;2022-12-07T06:46:03;11.40;;;5.60;;
34982;SDS011;21187;50.976;13.720;2022-12-07T06:51:06;10.02;;;4.93;;
34982;SDS011;21187;50.976;13.720;2022-12-07T06:56:08;9.65;;;5.35;;
34982;SDS011;21187;50.976;13.720;2022-12-07T07:01:10;11.80;;;4.95;;
34982;SDS011;21187;50.976;13.720;2022-12-07T07:06:14;11.15;;;5.10;;
34982;SDS011;21187;50.976;13.720;2022-12-07T07:11:16;8.95;;;4.95;;
34982;SDS011;21187;50.976;13.720;2022-12-07T07:16:18;8.85;;;4.32;;
34982;SDS011;21187;50.976;13.720;2022-12-07T07:21:20;14.85;;;6.28;;
34982;SDS011;21187;50.976;13.720;2022-12-07T07:26:22;11.48;;;5.80;;
34982;SDS011;21187;50.976;13.720;2022-12-07T07:31:24;9.25;;;4.82;;
34982;SDS011;21187;50.976;13.720;2022-12-07T07:36:26;10.38;;;5.60;;
34982;SDS011;21187;50.976;13.720;2022-12-07T07:41:28;10.00;;;5.38;;
34982;SDS011;21187;50.976;13.720;2022-12-07T07:46:30;9.88;;;4.82;;
34982;SDS011;21187;50.976;13.720;2022-12-07T07:51:32;8.15;;;3.70;;
34982;SDS011;21187;50.976;13.720;2022-12-07T07:56:34;9.55;;;4.55;;
34982;SDS011;21187;50.976;13.720;2022-12-07T08:01:36;10.90;;;5.53;;
34982;SDS011;21187;50.976;13.720;2022-12-07T08:06:38;9.35;;;4.65;;
34982;SDS011;21187;50.976;13.720;2022-12-07T08:11:40;9.80;;;5.60;;
34982;SDS011;21187;50.976;13.720;2022-12-07T08:16:42;17.08;;;7.45;;
34982;SDS011;21187;50.976;13.720;2022-12-07T08:21:44;18.52;;;7.60;;
34982;SDS011;21187;50.976;13.720;2022-12-07T08:26:46;13.93;;;6.85;;
34982;SDS011;21187;50.976;13.720;2022-12-07T08:31:47;15.85;;;8.40;;
34982;SDS011;21187;50.976;13.720;2022-12-07T08:36:49;15.82;;;7.95;;
34982;SDS011;21187;50.976;13.720;2022-12-07T08:41:51;17.70;;;8.60;;
34982;SDS011;21187;50.976;13.720;2022-12-07T08:46:54;16.60;;;7.63;;
34982;SDS011;21187;50.976;13.720;2022-12-07T08:51:59;17.42;;;7.50;;
34982;SDS011;21187;50.976;13.720;2022-12-07T08:57:04;15.05;;;7.22;;
34982;SDS011;21187;50.976;13.720;2022-12-07T09:02:08;14.88;;;7.22;;
34982;SDS011;21187;50.976;13.720;2022-12-07T09:07:10;12.48;;;6.20;;
34982;SDS011;21187;50.976;13.720;2022-12-07T09:12:12;12.90;;;6.82;;
34982;SDS011;21187;50.976;13.720;2022-12-07T09:17:13;14.43;;;5.88;;
34982;SDS011;21187;50.976;13.720;2022-12-07T09:22:16;9.55;;;6.25;;
34982;SDS011;21187;50.976;13.720;2022-12-07T09:27:18;9.20;;;5.43;;
34982;SDS011;21187;50.976;13.720;2022-12-07T09:32:20;11.85;;;6.15;;
34982;SDS011;21187;50.976;13.720;2022-12-07T09:37:22;13.07;;;6.15;;
34982;SDS011;21187;50.976;13.720;2022-12-07T09:42:43;12.70;;;5.68;;
34982;SDS011;21187;50.976;13.720;2022-12-07T09:47:48;11.48;;;5.88;;
34982;SDS011;21187;50.976;13.720;2022-12-07T09:52:51;13.68;;;4.63;;
34982;SDS011;21187;50.976;13.720;2022-12-07T09:57:55;7.88;;;4.45;;
34982;SDS011;21187;50.976;13.720;2022-12-07T10:03:00;11.85;;;5.70;;
34982;SDS011;21187;50.976;13.720;2022-12-07T10:08:04;10.63;;;5.00;;
34982;SDS011;21187;50.976;13.720;2022-12-07T10:13:19;11.02;;;4.78;;
34982;SDS011;21187;50.976;13.720;2022-12-07T10:23:34;14.68;;;5.10;;
34982;SDS011;21187;50.976;13.720;2022-12-07T10:28:37;11.73;;;4.63;;
34982;SDS011;21187;50.976;13.720;2022-12-07T10:33:53;13.68;;;5.15;;
34982;SDS011;21187;50.976;13.720;2022-12-07T10:44:19;15.60;;;4.72;;
34982;SDS011;21187;50.976;13.720;2022-12-07T10:54:59;12.40;;;5.88;;
34982;SDS011;21187;50.976;13.720;2022-12-07T11:11:09;10.52;;;4.90;;
34982;SDS011;21187;50.976;13.720;2022-12-07T11:38:17;13.35;;;4.78;;
34982;SDS011;21187;50.976;13.720;2022-12-07T11:43:31;13.88;;;4.40;;
34982;SDS011;21187;50.976;13.720;2022-12-07T11:48:46;12.90;;;5.38;;
34982;SDS011;21187;50.976;13.720;2022-12-07T11:54:02;14.23;;;5.03;;
34982;SDS011;21187;50.976;13.720;2022-12-07T11:59:15;16.38;;;5.97;;
34982;SDS011;21187;50.976;13.720;2022-12-07T12:04:40;19.17;;;5.80;;
34982;SDS011;21187;50.976;13.720;2022-12-07T12:10:01;9.90;;;4.72;;
34982;SDS011;21187;50.976;13.720;2022-12-07T12:25:58;14.27;;;4.90;;
34982;SDS011;21187;50.976;13.720;2022-12-07T12:31:07;8.65;;;4.50;;
34982;SDS011;21187;50.976;13.720;2022-12-07T12:36:24;16.20;;;4.97;;
34982;SDS011;21187;50.976;13.720;2022-12-07T12:46:37;8.25;;;3.35;;
34982;SDS011;21187;50.976;13.720;2022-12-07T12:51:54;7.75;;;3.95;;
34982;SDS011;21187;50.976;13.720;2022-12-07T13:02:30;6.85;;;3.50;;
34982;SDS011;21187;50.976;13.720;2022-12-07T13:23:36;12.73;;;4.78;;
34982;SDS011;21187;50.976;13.720;2022-12-07T13:28:41;9.90;;;4.95;;
34982;SDS011;21187;50.976;13.720;2022-12-07T13:33:46;12.27;;;5.20;;
34982;SDS011;21187;50.976;13.720;2022-12-07T13:38:58;11.60;;;4.45;;
34982;SDS011;21187;50.976;13.720;2022-12-07T13:44:03;17.33;;;5.25;;
34982;SDS011;21187;50.976;13.720;2022-12-07T13:54:22;9.77;;;3.97;;
34982;SDS011;21187;50.976;13.720;2022-12-07T13:59:25;7.40;;;3.35;;
34982;SDS011;21187;50.976;13.720;2022-12-07T14:04:32;8.23;;;3.00;;
34982;SDS011;21187;50.976;13.720;2022-12-07T14:09:37;18.43;;;3.47;;
34982;SDS011;21187;50.976;13.720;2022-12-07T14:14:39;8.65;;;2.78;;
34982;SDS011;21187;50.976;13.720;2022-12-07T14:19:55;7.07;;;2.70;;
34982;SDS011;21187;50.976;13.720;2022-12-07T14:25:00;5.00;;;2.42;;
34982;SDS011;21187;50.976;13.720;2022-12-07T14:30:15;4.32;;;2.50;;
34982;SDS011;21187;50.976;13.720;2022-12-07T14:35:17;8.13;;;3.10;;
34982;SDS011;21187;50.976;13.720;2022-12-07T14:40:22;3.80;;;1.98;;
34982;SDS011;21187;50.976;13.720;2022-12-07T14:45:25;7.72;;;2.63;;
34982;SDS011;21187;50.976;13.720;2022-12-07T14:50:27;3.80;;;2.30;;
34982;SDS011;21187;50.976;13.720;2022-12-07T14:55:30;5.75;;;2.17;;
34982;SDS011;21187;50.976;13.720;2022-12-07T15:00:33;6.88;;;2.70;;
34982;SDS011;21187;50.976;13.720;2022-12-07T15:05:35;8.43;;;2.55;;
34982;SDS011;21187;50.976;13.720;2022-12-07T15:10:38;5.03;;;2.33;;
34982;SDS011;21187;50.976;13.720;2022-12-07T15:15:41;6.82;;;2.50;;
34982;SDS011;21187;50.976;13.720;2022-12-07T15:20:43;8.00;;;2.13;;
34982;SDS011;21187;50.976;13.720;2022-12-07T15:25:47;5.22;;;2.33;;
34982;SDS011;21187;50.976;13.720;2022-12-07T15:30:49;7.68;;;2.45;;
34982;SDS011;21187;50.976;13.720;2022-12-07T15:35:51;8.20;;;2.42;;
34982;SDS011;21187;50.976;13.720;2022-12-07T15:40:53;5.63;;;2.25;;
34982;SDS011;21187;50.976;13.720;2022-12-07T15:45:55;6.88;;;1.88;;
34982;SDS011;21187;50.976;13.720;2022-12-07T15:51:06;5.78;;;2.35;;
34982;SDS011;21187;50.976;13.720;2022-12-07T15:56:10;7.28;;;2.10;;
34982;SDS011;21187;50.976;13.720;2022-12-07T16:01:15;4.10;;;1.77;;
34982;SDS011;21187;50.976;13.720;2022-12-07T16:06:19;8.68;;;2.83;;
34982;SDS011;21187;50.976;13.720;2022-12-07T16:11:20;4.88;;;2.20;;
34982;SDS011;21187;50.976;13.720;2022-12-07T16:16:22;7.13;;;2.38;;
34982;SDS011;21187;50.976;13.720;2022-12-07T16:21:25;6.68;;;1.90;;
34982;SDS011;21187;50.976;13.720;2022-12-07T16:26:26;5.20;;;2.47;;
34982;SDS011;21187;50.976;13.720;2022-12-07T16:31:29;8.73;;;2.67;;
34982;SDS011;21187;50.976;13.720;2022-12-07T16:36:30;7.15;;;2.53;;
34982;SDS011;21187;50.976;13.720;2022-12-07T16:41:52;8.00;;;2.67;;
34982;SDS011;21187;50.976;13.720;2022-12-07T16:46:54;4.50;;;2.50;;
34982;SDS011;21187;50.976;13.720;2022-12-07T16:51:56;8.05;;;2.63;;
34982;SDS011;21187;50.976;13.720;2022-12-07T16:57:18;7.70;;;2.55;;
34982;SDS011;21187;50.976;13.720;2022-12-07T17:02:24;8.18;;;2.67;;
34982;SDS011;21187;50.976;13.720;2022-12-07T17:07:26;6.47;;;2.58;;
34982;SDS011;21187;50.976;13.720;2022-12-07T17:12:28;7.32;;;2.42;;
34982;SDS011;21187;50.976;13.720;2022-12-07T17:17:30;6.03;;;2.72;;
34982;SDS011;21187;50.976;13.720;2022-12-07T17:22:32;7.78;;;2.35;;
34982;SDS011;21187;50.976;13.720;2022-12-07T17:27:34;7.68;;;2.80;;
34982;SDS011;21187;50.976;13.720;2022-12-07T17:32:36;7.38;;;2.60;;
34982;SDS011;21187;50.976;13.720;2022-12-07T17:37:38;5.45;;;2.80;;
34982;SDS011;21187;50.976;13.720;2022-12-07T17:42:39;11.70;;;4.95;;
34982;SDS011;21187;50.976;13.720;2022-12-07T17:47:42;9.90;;;4.00;;
34982;SDS011;21187;50.976;13.720;2022-12-07T17:52:44;9.52;;;3.55;;
34982;SDS011;21187;50.976;13.720;2022-12-07T17:58:05;10.63;;;3.10;;
34982;SDS011;21187;50.976;13.720;2022-12-07T18:03:07;7.47;;;3.58;;
34982;SDS011;21187;50.976;13.720;2022-12-07T18:08:11;6.20;;;2.90;;
34982;SDS011;21187;50.976;13.720;2022-12-07T18:13:13;8.85;;;3.13;;
34982;SDS011;21187;50.976;13.720;2022-12-07T18:18:33;9.98;;;3.88;;
34982;SDS011;21187;50.976;13.720;2022-12-07T18:23:36;18.75;;;8.48;;
34982;SDS011;21187;50.976;13.720;2022-12-07T18:28:39;12.25;;;4.90;;
34982;SDS011;21187;50.976;13.720;2022-12-07T18:33:42;14.38;;;4.38;;
34982;SDS011;21187;50.976;13.720;2022-12-07T18:38:45;11.43;;;3.60;;
34982;SDS011;21187;50.976;13.720;2022-12-07T18:43:47;5.28;;;2.05;;
34982;SDS011;21187;50.976;13.720;2022-12-07T18:48:49;5.85;;;1.88;;
34982;SDS011;21187;50.976;13.720;2022-12-07T18:53:52;3.72;;;1.40;;
34982;SDS011;21187;50.976;13.720;2022-12-07T18:58:55;2.83;;;1.48;;
34982;SDS011;21187;50.976;13.720;2022-12-07T19:04:23;5.50;;;2.38;;
34982;SDS011;21187;50.976;13.720;2022-12-07T19:09:25;6.22;;;2.83;;
34982;SDS011;21187;50.976;13.720;2022-12-07T19:14:28;5.18;;;3.58;;
34982;SDS011;21187;50.976;13.720;2022-12-07T19:19:36;13.73;;;4.13;;
34982;SDS011;21187;50.976;13.720;2022-12-07T19:24:41;7.18;;;3.72;;
34982;SDS011;21187;50.976;13.720;2022-12-07T19:29:47;10.25;;;4.40;;
34982;SDS011;21187;50.976;13.720;2022-12-07T19:34:50;11.20;;;4.57;;
34982;SDS011;21187;50.976;13.720;2022-12-07T19:39:52;10.63;;;3.72;;
34982;SDS011;21187;50.976;13.720;2022-12-07T19:44:54;7.22;;;3.88;;
34982;SDS011;21187;50.976;13.720;2022-12-07T19:49:56;10.73;;;4.00;;
34982;SDS011;21187;50.976;13.720;2022-12-07T19:54:58;8.95;;;3.58;;
34982;SDS011;21187;50.976;13.720;2022-12-07T20:00:00;11.18;;;3.88;;
34982;SDS011;21187;50.976;13.720;2022-12-07T20:05:04;9.48;;;3.63;;
34982;SDS011;21187;50.976;13.720;2022-12-07T20:10:08;9.43;;;3.67;;
34982;SDS011;21187;50.976;13.720;2022-12-07T20:15:11;5.43;;;2.80;;
34982;SDS011;21187;50.976;13.720;2022-12-07T20:20:13;6.30;;;3.50;;
34982;SDS011;21187;50.976;13.720;2022-12-07T20:25:15;13.07;;;3.17;;
34982;SDS011;21187;50.976;13.720;2022-12-07T20:30:20;15.55;;;4.90;;
34982;SDS011;21187;50.976;13.720;2022-12-07T20:35:22;14.60;;;2.97;;
34982;SDS011;21187;50.976;13.720;2022-12-07T20:40:25;8.35;;;2.90;;
34982;SDS011;21187;50.976;13.720;2022-12-07T20:45:26;10.05;;;3.08;;
34982;SDS011;21187;50.976;13.720;2022-12-07T20:50:28;11.55;;;3.10;;
34982;SDS011;21187;50.976;13.720;2022-12-07T20:55:30;15.65;;;4.63;;
34982;SDS011;21187;50.976;13.720;2022-12-07T21:00:33;17.15;;;3.92;;
34982;SDS011;21187;50.976;13.720;2022-12-07T21:05:36;7.35;;;2.78;;
34982;SDS011;21187;50.976;13.720;2022-12-07T21:10:39;7.57;;;3.45;;
34982;SDS011;21187;50.976;13.720;2022-12-07T21:15:41;7.78;;;3.53;;
34982;SDS011;21187;50.976;13.720;2022-12-07T21:20:43;13.35;;;3.50;;
34982;SDS011;21187;50.976;13.720;2022-12-07T21:25:45;9.95;;;3.58;;
34982;SDS011;21187;50.976;13.720;2022-12-07T21:30:46;13.95;;;3.63;;
34982;SDS011;21187;50.976;13.720;2022-12-07T21:36:09;10.30;;;4.05;;
34982;SDS011;21187;50.976;13.720;2022-12-07T21:41:16;10.05;;;3.40;;
34982;SDS011;21187;50.976;13.720;2022-12-07T21:46:24;6.88;;;3.17;;
34982;SDS011;21187;50.976;13.720;2022-12-07T21:51:35;6.50;;;3.38;;
34982;SDS011;21187;50.976;13.720;2022-12-07T21:56:38;9.27;;;3.45;;
34982;SDS011;21187;50.976;13.720;2022-12-07T22:01:42;7.93;;;3.08;;
34982;SDS011;21187;50.976;13.720;2022-12-07T22:06:49;10.02;;;3.88;;
34982;SDS011;21187;50.976;13.720;2022-12-07T22:11:53;12.93;;;3.45;;
34982;SDS011;21187;50.976;13.720;2022-12-07T22:16:55;7.47;;;3.20;;
34982;SDS011;21187;50.976;13.720;2022-12-07T22:21:58;6.10;;;3.17;;
34982;SDS011;21187;50.976;13.720;2022-12-07T22:27:00;15.68;;;3.33;;
34982;SDS011;21187;50.976;13.720;2022-12-07T22:32:01;8.63;;;3.65;;
34982;SDS011;21187;50.976;13.720;2022-12-07T22:37:24;12.40;;;3.20;;
34982;SDS011;21187;50.976;13.720;2022-12-07T22:42:28;10.50;;;3.03;;
34982;SDS011;21187;50.976;13.720;2022-12-07T22:47:29;8.48;;;3.10;;
34982;SDS011;21187;50.976;13.720;2022-12-07T22:52:31;9.50;;;3.30;;
34982;SDS011;21187;50.976;13.720;2022-12-07T22:57:33;8.60;;;3.75;;
34982;SDS011;21187;50.976;13.720;2022-12-07T23:02:35;10.63;;;4.25;;
34982;SDS011;21187;50.976;13.720;2022-12-07T23:07:37;9.90;;;3.85;;
34982;SDS011;21187;50.976;13.720;2022-12-07T23:12:39;10.90;;;3.13;;
34982;SDS011;21187;50.976;13.720;2022-12-07T23:17:59;9.52;;;4.63;;
34982;SDS011;21187;50.976;13.720;2022-12-07T23:23:01;9.65;;;4.18;;
34982;SDS011;21187;50.976;13.720;2022-12-07T23:28:03;9.93;;;4.13;;
34982;SDS011;21187;50.976;13.720;2022-12-07T23:33:05;16.08;;;4.65;;
34982;SDS011;21187;50.976;13.720;2022-12-07T23:38:07;9.93;;;3.78;;
34982;SDS011;21187;50.976;13.720;2022-12-07T23:43:09;12.15;;;4.72;;
34982;SDS011;21187;50.976;13.720;2022-12-07T23:48:11;11.75;;;4.15;;
34982;SDS011;21187;50.976;13.720;2022-12-07T23:53:12;11.15;;;4.18;;
34982;SDS011;21187;50.976;13.720;2022-12-07T23:58:14;11.57;;;3.70;;
